sensor_id;sensor_type;location;lat;lon;timestamp;temperature;humidity
5011;DHT22;2524;54.364;10.072;2022-10-22T00:00:25;14.20;99.90
5011;DHT22;2524;54.364;10.072;2022-10-22T00:02:51;14.20;99.90
5011;DHT22;2524;54.364;10.072;2022-10-22T00:05:17;14.20;99.90
5011;DHT22;2524;54.364;10.072;2022-10-22T00:07:42;14.20;99.90
5011;DHT22;2524;54.364;10.072;2022-10-22T00:10:08;14.30;99.90
5011;DHT22;2524;54.364;10.072;2022-10-22T00:12:34;14.20;99.90
5011;DHT22;2524;54.364;10.072;2022-10-22T00:15:00;14.20;99.90
5011;DHT22;2524;54.364;10.072;2022-10-22T00:17:25;14.20;99.90
5011;DHT22;2524;54.364;10.072;2022-10-22T00:19:51;14.20;99.90
5011;DHT22;2524;54.364;10.072;2022-10-22T00:22:16;14.20;99.90
5011;DHT22;2524;54.364;10.072;2022-10-22T00:24:42;14.20;99.90
5011;DHT22;2524;54.364;10.072;2022-10-22T00:27:09;14.20;99.90
5011;DHT22;2524;54.364;10.072;2022-10-22T00:29:36;14.20;99.90
5011;DHT22;2524;54.364;10.072;2022-10-22T00:32:02;14.20;99.90
5011;DHT22;2524;54.364;10.072;2022-10-22T00:34:28;14.20;99.90
5011;DHT22;2524;54.364;10.072;2022-10-22T00:36:54;14.20;99.90
5011;DHT22;2524;54.364;10.072;2022-10-22T00:39:21;14.20;99.90
5011;DHT22;2524;54.364;10.072;2022-10-22T00:41:48;14.20;99.90
5011;DHT22;2524;54.364;10.072;2022-10-22T00:47:18;14.20;99.90
5011;DHT22;2524;54.364;10.072;2022-10-22T00:49:45;14.20;99.90
5011;DHT22;2524;54.364;10.072;2022-10-22T00:52:12;14.20;99.90
5011;DHT22;2524;54.364;10.072;2022-10-22T00:54:38;14.20;99.90
5011;DHT22;2524;54.364;10.072;2022-10-22T00:57:05;14.20;99.90
5011;DHT22;2524;54.364;10.072;2022-10-22T00:59:31;14.20;99.90
5011;DHT22;2524;54.364;10.072;2022-10-22T01:01:58;14.20;99.90
5011;DHT22;2524;54.364;10.072;2022-10-22T01:04:23;14.20;99.90
5011;DHT22;2524;54.364;10.072;2022-10-22T01:06:49;14.20;99.90
5011;DHT22;2524;54.364;10.072;2022-10-22T01:09:29;14.10;99.90
5011;DHT22;2524;54.364;10.072;2022-10-22T01:12:06;14.10;99.90
5011;DHT22;2524;54.364;10.072;2022-10-22T01:14:58;14.10;99.90
5011;DHT22;2524;54.364;10.072;2022-10-22T01:20:16;14.20;99.90
5011;DHT22;2524;54.364;10.072;2022-10-22T01:23:11;14.20;99.90
5011;DHT22;2524;54.364;10.072;2022-10-22T01:26:17;14.20;99.90
5011;DHT22;2524;54.364;10.072;2022-10-22T01:29:15;14.20;99.90
5011;DHT22;2524;54.364;10.072;2022-10-22T01:31:50;14.20;99.90
5011;DHT22;2524;54.364;10.072;2022-10-22T01:34:18;14.20;99.90
5011;DHT22;2524;54.364;10.072;2022-10-22T01:36:45;14.20;99.90
5011;DHT22;2524;54.364;10.072;2022-10-22T01:39:14;14.30;99.90
5011;DHT22;2524;54.364;10.072;2022-10-22T01:41:42;14.30;99.90
5011;DHT22;2524;54.364;10.072;2022-10-22T01:46:56;14.20;99.90
5011;DHT22;2524;54.364;10.072;2022-10-22T01:49:29;14.20;99.90
5011;DHT22;2524;54.364;10.072;2022-10-22T01:52:44;14.20;99.90
5011;DHT22;2524;54.364;10.072;2022-10-22T02:01:07;14.10;99.90
5011;DHT22;2524;54.364;10.072;2022-10-22T02:03:45;14.10;99.90
5011;DHT22;2524;54.364;10.072;2022-10-22T02:06:19;14.10;99.90
5011;DHT22;2524;54.364;10.072;2022-10-22T02:08:46;14.10;99.90
5011;DHT22;2524;54.364;10.072;2022-10-22T02:11:13;14.10;99.90
5011;DHT22;2524;54.364;10.072;2022-10-22T02:13:43;14.20;99.90
5011;DHT22;2524;54.364;10.072;2022-10-22T02:16:15;14.20;99.90
5011;DHT22;2524;54.364;10.072;2022-10-22T02:18:44;14.20;99.90
5011;DHT22;2524;54.364;10.072;2022-10-22T02:21:10;14.30;99.90
5011;DHT22;2524;54.364;10.072;2022-10-22T02:23:36;14.10;99.90
5011;DHT22;2524;54.364;10.072;2022-10-22T02:26:13;14.10;99.90
5011;DHT22;2524;54.364;10.072;2022-10-22T02:28:49;14.20;99.90
5011;DHT22;2524;54.364;10.072;2022-10-22T02:31:21;14.20;99.90
5011;DHT22;2524;54.364;10.072;2022-10-22T02:33:50;14.30;99.90
5011;DHT22;2524;54.364;10.072;2022-10-22T02:36:18;14.20;99.90
5011;DHT22;2524;54.364;10.072;2022-10-22T02:38:46;14.20;99.90
5011;DHT22;2524;54.364;10.072;2022-10-22T02:41:13;14.20;99.90
5011;DHT22;2524;54.364;10.072;2022-10-22T02:43:40;14.20;99.90
5011;DHT22;2524;54.364;10.072;2022-10-22T02:46:07;14.40;99.90
5011;DHT22;2524;54.364;10.072;2022-10-22T02:48:33;14.20;99.90
5011;DHT22;2524;54.364;10.072;2022-10-22T02:50:59;14.30;99.90
5011;DHT22;2524;54.364;10.072;2022-10-22T02:53:24;14.20;99.90
5011;DHT22;2524;54.364;10.072;2022-10-22T02:55:50;14.30;99.90
5011;DHT22;2524;54.364;10.072;2022-10-22T02:58:15;14.20;99.90
5011;DHT22;2524;54.364;10.072;2022-10-22T03:00:41;14.20;99.90
5011;DHT22;2524;54.364;10.072;2022-10-22T03:03:07;14.20;99.90
5011;DHT22;2524;54.364;10.072;2022-10-22T03:05:32;14.20;99.90
5011;DHT22;2524;54.364;10.072;2022-10-22T03:07:58;14.20;99.90
5011;DHT22;2524;54.364;10.072;2022-10-22T03:10:23;14.20;99.90
5011;DHT22;2524;54.364;10.072;2022-10-22T03:12:50;14.20;99.90
5011;DHT22;2524;54.364;10.072;2022-10-22T03:15:17;14.20;99.90
5011;DHT22;2524;54.364;10.072;2022-10-22T03:17:43;14.20;99.90
5011;DHT22;2524;54.364;10.072;2022-10-22T03:20:09;14.20;99.90
5011;DHT22;2524;54.364;10.072;2022-10-22T03:22:35;14.30;99.90
5011;DHT22;2524;54.364;10.072;2022-10-22T03:25:05;14.20;99.90
5011;DHT22;2524;54.364;10.072;2022-10-22T03:27:34;14.20;99.90
5011;DHT22;2524;54.364;10.072;2022-10-22T03:30:01;14.30;99.90
5011;DHT22;2524;54.364;10.072;2022-10-22T03:32:26;14.30;99.90
5011;DHT22;2524;54.364;10.072;2022-10-22T03:34:52;14.30;99.90
5011;DHT22;2524;54.364;10.072;2022-10-22T03:37:18;14.20;99.90
5011;DHT22;2524;54.364;10.072;2022-10-22T03:39:44;14.20;99.90
5011;DHT22;2524;54.364;10.072;2022-10-22T03:42:09;14.20;99.90
5011;DHT22;2524;54.364;10.072;2022-10-22T03:44:37;14.20;99.90
5011;DHT22;2524;54.364;10.072;2022-10-22T03:47:04;14.20;99.90
5011;DHT22;2524;54.364;10.072;2022-10-22T03:49:29;14.10;99.90
5011;DHT22;2524;54.364;10.072;2022-10-22T03:51:55;14.10;99.90
5011;DHT22;2524;54.364;10.072;2022-10-22T03:54:21;14.10;99.90
5011;DHT22;2524;54.364;10.072;2022-10-22T03:56:46;14.00;99.90
5011;DHT22;2524;54.364;10.072;2022-10-22T03:59:12;13.90;99.90
5011;DHT22;2524;54.364;10.072;2022-10-22T04:01:38;14.00;99.90
5011;DHT22;2524;54.364;10.072;2022-10-22T04:04:04;13.90;99.90
5011;DHT22;2524;54.364;10.072;2022-10-22T04:06:29;13.90;99.90
5011;DHT22;2524;54.364;10.072;2022-10-22T04:08:55;13.90;99.90
5011;DHT22;2524;54.364;10.072;2022-10-22T04:11:21;13.90;99.90
5011;DHT22;2524;54.364;10.072;2022-10-22T04:13:47;13.90;99.90
5011;DHT22;2524;54.364;10.072;2022-10-22T04:16:21;13.90;99.90
5011;DHT22;2524;54.364;10.072;2022-10-22T04:18:48;13.80;99.90
5011;DHT22;2524;54.364;10.072;2022-10-22T04:21:16;13.90;99.90
5011;DHT22;2524;54.364;10.072;2022-10-22T04:23:46;13.90;99.90
5011;DHT22;2524;54.364;10.072;2022-10-22T04:26:12;13.80;99.90
5011;DHT22;2524;54.364;10.072;2022-10-22T04:28:38;13.70;99.90
5011;DHT22;2524;54.364;10.072;2022-10-22T04:31:08;13.70;99.90
5011;DHT22;2524;54.364;10.072;2022-10-22T04:33:34;13.90;99.90
5011;DHT22;2524;54.364;10.072;2022-10-22T04:36:01;13.70;99.90
5011;DHT22;2524;54.364;10.072;2022-10-22T04:38:30;13.80;99.90
5011;DHT22;2524;54.364;10.072;2022-10-22T04:40:55;13.80;99.90
5011;DHT22;2524;54.364;10.072;2022-10-22T04:43:21;13.70;99.90
5011;DHT22;2524;54.364;10.072;2022-10-22T04:45:46;13.80;99.90
5011;DHT22;2524;54.364;10.072;2022-10-22T04:48:12;13.70;99.90
5011;DHT22;2524;54.364;10.072;2022-10-22T04:50:37;13.70;99.90
5011;DHT22;2524;54.364;10.072;2022-10-22T04:53:03;13.70;99.90
5011;DHT22;2524;54.364;10.072;2022-10-22T04:55:29;13.70;99.90
5011;DHT22;2524;54.364;10.072;2022-10-22T04:57:54;13.80;99.90
5011;DHT22;2524;54.364;10.072;2022-10-22T05:00:20;13.80;99.90
5011;DHT22;2524;54.364;10.072;2022-10-22T05:02:49;13.70;99.90
5011;DHT22;2524;54.364;10.072;2022-10-22T05:05:15;13.70;99.90
5011;DHT22;2524;54.364;10.072;2022-10-22T05:07:40;13.70;99.90
5011;DHT22;2524;54.364;10.072;2022-10-22T05:10:06;13.70;99.90
5011;DHT22;2524;54.364;10.072;2022-10-22T05:12:32;13.70;99.90
5011;DHT22;2524;54.364;10.072;2022-10-22T05:14:59;13.80;99.90
5011;DHT22;2524;54.364;10.072;2022-10-22T05:17:24;13.90;99.90
5011;DHT22;2524;54.364;10.072;2022-10-22T05:19:50;13.80;99.90
5011;DHT22;2524;54.364;10.072;2022-10-22T05:22:15;13.90;99.90
5011;DHT22;2524;54.364;10.072;2022-10-22T05:24:41;13.80;99.90
5011;DHT22;2524;54.364;10.072;2022-10-22T05:27:07;13.90;99.90
5011;DHT22;2524;54.364;10.072;2022-10-22T05:29:32;13.90;99.90
5011;DHT22;2524;54.364;10.072;2022-10-22T05:31:58;13.90;99.90
5011;DHT22;2524;54.364;10.072;2022-10-22T05:34:23;13.80;99.90
5011;DHT22;2524;54.364;10.072;2022-10-22T05:36:49;13.80;99.90
5011;DHT22;2524;54.364;10.072;2022-10-22T05:39:15;13.90;99.90
5011;DHT22;2524;54.364;10.072;2022-10-22T05:41:40;13.80;99.90
5011;DHT22;2524;54.364;10.072;2022-10-22T05:44:06;13.90;99.90
5011;DHT22;2524;54.364;10.072;2022-10-22T05:46:35;13.90;99.90
5011;DHT22;2524;54.364;10.072;2022-10-22T05:49:02;13.90;99.90
5011;DHT22;2524;54.364;10.072;2022-10-22T05:51:30;13.80;99.90
5011;DHT22;2524;54.364;10.072;2022-10-22T05:53:58;13.90;99.90
5011;DHT22;2524;54.364;10.072;2022-10-22T05:56:25;13.90;99.90
5011;DHT22;2524;54.364;10.072;2022-10-22T05:58:51;13.90;99.90
5011;DHT22;2524;54.364;10.072;2022-10-22T06:01:19;13.80;99.90
5011;DHT22;2524;54.364;10.072;2022-10-22T06:03:45;13.90;99.90
5011;DHT22;2524;54.364;10.072;2022-10-22T06:06:21;13.90;99.90
5011;DHT22;2524;54.364;10.072;2022-10-22T06:08:51;13.80;99.90
5011;DHT22;2524;54.364;10.072;2022-10-22T06:11:21;13.90;99.90
5011;DHT22;2524;54.364;10.072;2022-10-22T06:13:48;13.80;99.90
5011;DHT22;2524;54.364;10.072;2022-10-22T06:16:15;13.90;99.90
5011;DHT22;2524;54.364;10.072;2022-10-22T06:18:40;13.80;99.90
5011;DHT22;2524;54.364;10.072;2022-10-22T06:21:11;13.90;99.90
5011;DHT22;2524;54.364;10.072;2022-10-22T06:23:38;13.80;99.90
5011;DHT22;2524;54.364;10.072;2022-10-22T06:26:05;13.80;99.90
5011;DHT22;2524;54.364;10.072;2022-10-22T06:28:30;13.80;99.90
5011;DHT22;2524;54.364;10.072;2022-10-22T06:30:58;13.90;99.90
5011;DHT22;2524;54.364;10.072;2022-10-22T06:33:24;13.90;99.90
5011;DHT22;2524;54.364;10.072;2022-10-22T06:35:50;13.90;99.90
5011;DHT22;2524;54.364;10.072;2022-10-22T06:38:16;13.80;99.90
5011;DHT22;2524;54.364;10.072;2022-10-22T06:40:41;13.80;99.90
5011;DHT22;2524;54.364;10.072;2022-10-22T06:43:11;13.90;99.90
5011;DHT22;2524;54.364;10.072;2022-10-22T06:45:37;13.90;99.90
5011;DHT22;2524;54.364;10.072;2022-10-22T06:48:03;13.80;99.90
5011;DHT22;2524;54.364;10.072;2022-10-22T06:50:29;13.70;99.90
5011;DHT22;2524;54.364;10.072;2022-10-22T06:52:54;13.80;99.90
5011;DHT22;2524;54.364;10.072;2022-10-22T06:55:20;13.70;99.90
5011;DHT22;2524;54.364;10.072;2022-10-22T06:57:45;13.80;99.90
5011;DHT22;2524;54.364;10.072;2022-10-22T07:00:11;13.70;99.90
5011;DHT22;2524;54.364;10.072;2022-10-22T07:02:37;13.70;99.90
5011;DHT22;2524;54.364;10.072;2022-10-22T07:05:03;13.70;99.90
5011;DHT22;2524;54.364;10.072;2022-10-22T07:07:29;13.70;99.90
5011;DHT22;2524;54.364;10.072;2022-10-22T07:09:54;13.80;99.90
5011;DHT22;2524;54.364;10.072;2022-10-22T07:12:22;13.80;99.90
5011;DHT22;2524;54.364;10.072;2022-10-22T07:14:48;13.80;99.90
5011;DHT22;2524;54.364;10.072;2022-10-22T07:17:14;13.70;99.90
5011;DHT22;2524;54.364;10.072;2022-10-22T07:19:44;13.80;99.90
5011;DHT22;2524;54.364;10.072;2022-10-22T07:22:09;13.70;99.90
5011;DHT22;2524;54.364;10.072;2022-10-22T07:24:35;13.90;99.90
5011;DHT22;2524;54.364;10.072;2022-10-22T07:27:00;13.80;99.90
5011;DHT22;2524;54.364;10.072;2022-10-22T07:29:26;13.70;99.90
5011;DHT22;2524;54.364;10.072;2022-10-22T07:31:52;13.70;99.90
5011;DHT22;2524;54.364;10.072;2022-10-22T07:34:18;13.70;99.90
5011;DHT22;2524;54.364;10.072;2022-10-22T07:36:44;13.80;99.90
5011;DHT22;2524;54.364;10.072;2022-10-22T07:39:09;13.80;99.90
5011;DHT22;2524;54.364;10.072;2022-10-22T07:41:35;13.70;99.90
5011;DHT22;2524;54.364;10.072;2022-10-22T07:44:00;13.80;99.90
5011;DHT22;2524;54.364;10.072;2022-10-22T07:46:26;13.70;99.90
5011;DHT22;2524;54.364;10.072;2022-10-22T07:48:52;13.70;99.90
5011;DHT22;2524;54.364;10.072;2022-10-22T07:51:18;13.70;99.90
5011;DHT22;2524;54.364;10.072;2022-10-22T07:53:45;13.70;99.90
5011;DHT22;2524;54.364;10.072;2022-10-22T07:56:12;13.70;99.90
5011;DHT22;2524;54.364;10.072;2022-10-22T07:58:38;13.70;99.90
5011;DHT22;2524;54.364;10.072;2022-10-22T08:01:03;13.70;99.90
5011;DHT22;2524;54.364;10.072;2022-10-22T08:03:32;13.80;99.90
5011;DHT22;2524;54.364;10.072;2022-10-22T08:05:59;13.70;99.90
5011;DHT22;2524;54.364;10.072;2022-10-22T08:08:25;13.70;99.90
5011;DHT22;2524;54.364;10.072;2022-10-22T08:10:51;13.80;99.90
5011;DHT22;2524;54.364;10.072;2022-10-22T08:13:19;13.70;99.90
5011;DHT22;2524;54.364;10.072;2022-10-22T08:15:44;13.80;99.90
5011;DHT22;2524;54.364;10.072;2022-10-22T08:18:11;13.70;99.90
5011;DHT22;2524;54.364;10.072;2022-10-22T08:20:37;13.80;99.90
5011;DHT22;2524;54.364;10.072;2022-10-22T08:23:02;13.70;99.90
5011;DHT22;2524;54.364;10.072;2022-10-22T08:25:28;13.90;99.90
5011;DHT22;2524;54.364;10.072;2022-10-22T08:27:53;13.90;99.90
5011;DHT22;2524;54.364;10.072;2022-10-22T08:30:19;13.80;99.90
5011;DHT22;2524;54.364;10.072;2022-10-22T08:32:45;13.80;99.90
5011;DHT22;2524;54.364;10.072;2022-10-22T08:35:10;13.90;99.90
5011;DHT22;2524;54.364;10.072;2022-10-22T08:37:36;13.80;99.90
5011;DHT22;2524;54.364;10.072;2022-10-22T08:40:03;13.80;99.90
5011;DHT22;2524;54.364;10.072;2022-10-22T08:45:14;13.90;99.90
5011;DHT22;2524;54.364;10.072;2022-10-22T08:50:41;13.90;99.90
5011;DHT22;2524;54.364;10.072;2022-10-22T08:53:33;13.90;99.90
5011;DHT22;2524;54.364;10.072;2022-10-22T08:56:03;14.00;99.90
5011;DHT22;2524;54.364;10.072;2022-10-22T08:58:45;14.00;99.90
5011;DHT22;2524;54.364;10.072;2022-10-22T09:01:13;14.00;99.90
5011;DHT22;2524;54.364;10.072;2022-10-22T09:03:56;14.00;99.90
5011;DHT22;2524;54.364;10.072;2022-10-22T09:06:25;14.10;99.90
5011;DHT22;2524;54.364;10.072;2022-10-22T09:08:52;14.10;99.90
5011;DHT22;2524;54.364;10.072;2022-10-22T09:11:23;14.10;99.90
5011;DHT22;2524;54.364;10.072;2022-10-22T09:13:49;14.20;99.90
5011;DHT22;2524;54.364;10.072;2022-10-22T09:21:47;14.20;99.90
5011;DHT22;2524;54.364;10.072;2022-10-22T09:24:45;14.10;99.90
5011;DHT22;2524;54.364;10.072;2022-10-22T09:27:18;14.00;99.90
5011;DHT22;2524;54.364;10.072;2022-10-22T09:29:46;14.10;99.90
5011;DHT22;2524;54.364;10.072;2022-10-22T09:32:12;14.10;99.90
5011;DHT22;2524;54.364;10.072;2022-10-22T09:34:39;14.20;99.90
5011;DHT22;2524;54.364;10.072;2022-10-22T09:37:07;14.10;99.90
5011;DHT22;2524;54.364;10.072;2022-10-22T09:39:42;14.10;99.90
5011;DHT22;2524;54.364;10.072;2022-10-22T09:42:09;14.10;99.90
5011;DHT22;2524;54.364;10.072;2022-10-22T09:44:36;14.10;99.90
5011;DHT22;2524;54.364;10.072;2022-10-22T09:47:25;14.10;99.90
5011;DHT22;2524;54.364;10.072;2022-10-22T09:53:11;14.10;99.90
5011;DHT22;2524;54.364;10.072;2022-10-22T09:55:39;14.10;99.90
5011;DHT22;2524;54.364;10.072;2022-10-22T09:58:07;14.10;99.90
5011;DHT22;2524;54.364;10.072;2022-10-22T10:00:42;14.20;99.90
5011;DHT22;2524;54.364;10.072;2022-10-22T10:03:18;14.10;99.90
5011;DHT22;2524;54.364;10.072;2022-10-22T10:05:49;14.20;99.90
5011;DHT22;2524;54.364;10.072;2022-10-22T10:08:16;14.10;99.90
5011;DHT22;2524;54.364;10.072;2022-10-22T10:13:29;14.20;99.90
5011;DHT22;2524;54.364;10.072;2022-10-22T10:21:17;14.30;99.90
5011;DHT22;2524;54.364;10.072;2022-10-22T10:23:50;14.30;99.90
5011;DHT22;2524;54.364;10.072;2022-10-22T10:26:22;14.30;99.90
5011;DHT22;2524;54.364;10.072;2022-10-22T10:28:56;14.50;99.90
5011;DHT22;2524;54.364;10.072;2022-10-22T10:31:57;14.40;99.90
5011;DHT22;2524;54.364;10.072;2022-10-22T10:37:28;14.60;99.90
5011;DHT22;2524;54.364;10.072;2022-10-22T10:48:34;15.20;99.90
5011;DHT22;2524;54.364;10.072;2022-10-22T10:54:20;15.50;99.90
5011;DHT22;2524;54.364;10.072;2022-10-22T11:00:15;15.80;99.90
5011;DHT22;2524;54.364;10.072;2022-10-22T11:08:23;16.10;99.90
5011;DHT22;2524;54.364;10.072;2022-10-22T11:10:51;16.20;99.90
5011;DHT22;2524;54.364;10.072;2022-10-22T11:13:38;16.30;99.90
5011;DHT22;2524;54.364;10.072;2022-10-22T11:18:47;16.50;99.90
5011;DHT22;2524;54.364;10.072;2022-10-22T11:21:38;16.50;99.90
5011;DHT22;2524;54.364;10.072;2022-10-22T11:24:27;16.70;99.90
5011;DHT22;2524;54.364;10.072;2022-10-22T11:27:06;16.80;99.90
5011;DHT22;2524;54.364;10.072;2022-10-22T11:29:40;16.90;99.90
5011;DHT22;2524;54.364;10.072;2022-10-22T11:32:50;17.00;99.90
5011;DHT22;2524;54.364;10.072;2022-10-22T11:35:23;17.00;99.90
5011;DHT22;2524;54.364;10.072;2022-10-22T11:37:54;17.10;99.90
5011;DHT22;2524;54.364;10.072;2022-10-22T11:40:34;17.10;99.90
5011;DHT22;2524;54.364;10.072;2022-10-22T11:43:05;17.20;99.90
5011;DHT22;2524;54.364;10.072;2022-10-22T11:45:40;17.20;99.90
5011;DHT22;2524;54.364;10.072;2022-10-22T11:50:55;17.30;99.90
5011;DHT22;2524;54.364;10.072;2022-10-22T11:55:52;17.50;99.90
5011;DHT22;2524;54.364;10.072;2022-10-22T12:16:58;18.20;99.90
5011;DHT22;2524;54.364;10.072;2022-10-22T12:19:33;18.20;99.90
5011;DHT22;2524;54.364;10.072;2022-10-22T12:24:41;18.10;99.90
5011;DHT22;2524;54.364;10.072;2022-10-22T12:27:36;18.00;99.90
5011;DHT22;2524;54.364;10.072;2022-10-22T12:30:42;18.00;99.90
5011;DHT22;2524;54.364;10.072;2022-10-22T12:33:19;18.10;99.90
5011;DHT22;2524;54.364;10.072;2022-10-22T12:35:46;18.10;99.90
5011;DHT22;2524;54.364;10.072;2022-10-22T12:38:22;18.10;99.90
5011;DHT22;2524;54.364;10.072;2022-10-22T12:40:50;18.20;99.90
5011;DHT22;2524;54.364;10.072;2022-10-22T12:43:27;18.20;99.90
5011;DHT22;2524;54.364;10.072;2022-10-22T12:45:53;18.20;99.90
5011;DHT22;2524;54.364;10.072;2022-10-22T12:48:23;18.20;99.90
5011;DHT22;2524;54.364;10.072;2022-10-22T12:50:58;18.10;99.90
5011;DHT22;2524;54.364;10.072;2022-10-22T12:56:41;18.00;99.90
5011;DHT22;2524;54.364;10.072;2022-10-22T13:01:41;17.90;99.90
5011;DHT22;2524;54.364;10.072;2022-10-22T13:04:35;17.70;99.90
5011;DHT22;2524;54.364;10.072;2022-10-22T13:09:45;17.70;99.90
5011;DHT22;2524;54.364;10.072;2022-10-22T13:12:12;17.70;99.90
5011;DHT22;2524;54.364;10.072;2022-10-22T13:14:42;17.80;99.90
5011;DHT22;2524;54.364;10.072;2022-10-22T13:17:47;17.70;99.90
5011;DHT22;2524;54.364;10.072;2022-10-22T13:20:21;17.80;99.90
5011;DHT22;2524;54.364;10.072;2022-10-22T13:23:17;17.70;99.90
5011;DHT22;2524;54.364;10.072;2022-10-22T13:25:59;17.70;99.90
5011;DHT22;2524;54.364;10.072;2022-10-22T13:28:26;17.60;99.90
5011;DHT22;2524;54.364;10.072;2022-10-22T13:30:57;17.60;99.90
5011;DHT22;2524;54.364;10.072;2022-10-22T13:33:25;17.50;99.90
5011;DHT22;2524;54.364;10.072;2022-10-22T13:35:55;17.50;99.90
5011;DHT22;2524;54.364;10.072;2022-10-22T13:38:25;17.40;99.90
5011;DHT22;2524;54.364;10.072;2022-10-22T13:40:52;17.50;99.90
5011;DHT22;2524;54.364;10.072;2022-10-22T13:43:18;17.40;99.90
5011;DHT22;2524;54.364;10.072;2022-10-22T13:45:44;17.40;99.90
5011;DHT22;2524;54.364;10.072;2022-10-22T13:48:15;17.30;99.90
5011;DHT22;2524;54.364;10.072;2022-10-22T13:50:42;17.30;99.90
5011;DHT22;2524;54.364;10.072;2022-10-22T13:53:20;17.30;99.90
5011;DHT22;2524;54.364;10.072;2022-10-22T13:55:46;17.20;99.90
5011;DHT22;2524;54.364;10.072;2022-10-22T13:58:20;17.30;99.90
5011;DHT22;2524;54.364;10.072;2022-10-22T14:00:49;17.20;99.90
5011;DHT22;2524;54.364;10.072;2022-10-22T14:03:18;17.20;99.90
5011;DHT22;2524;54.364;10.072;2022-10-22T14:05:45;17.20;99.90
5011;DHT22;2524;54.364;10.072;2022-10-22T14:08:13;17.20;99.90
5011;DHT22;2524;54.364;10.072;2022-10-22T14:10:39;17.10;99.90
5011;DHT22;2524;54.364;10.072;2022-10-22T14:13:06;17.10;99.90
5011;DHT22;2524;54.364;10.072;2022-10-22T14:15:33;17.10;99.90
5011;DHT22;2524;54.364;10.072;2022-10-22T14:17:59;17.10;99.90
5011;DHT22;2524;54.364;10.072;2022-10-22T14:20:29;17.00;99.90
5011;DHT22;2524;54.364;10.072;2022-10-22T14:23:01;17.00;99.90
5011;DHT22;2524;54.364;10.072;2022-10-22T14:25:27;17.00;99.90
5011;DHT22;2524;54.364;10.072;2022-10-22T14:27:55;17.00;99.90
5011;DHT22;2524;54.364;10.072;2022-10-22T14:30:25;16.90;99.90
5011;DHT22;2524;54.364;10.072;2022-10-22T14:32:51;16.90;99.90
5011;DHT22;2524;54.364;10.072;2022-10-22T14:35:20;16.90;99.90
5011;DHT22;2524;54.364;10.072;2022-10-22T14:37:46;16.90;99.90
5011;DHT22;2524;54.364;10.072;2022-10-22T14:40:14;16.80;99.90
5011;DHT22;2524;54.364;10.072;2022-10-22T14:42:42;17.00;99.90
5011;DHT22;2524;54.364;10.072;2022-10-22T14:45:17;16.80;99.90
5011;DHT22;2524;54.364;10.072;2022-10-22T14:47:43;16.80;99.90
5011;DHT22;2524;54.364;10.072;2022-10-22T14:50:10;16.80;99.90
5011;DHT22;2524;54.364;10.072;2022-10-22T14:52:35;16.80;99.90
5011;DHT22;2524;54.364;10.072;2022-10-22T14:55:01;16.80;99.90
5011;DHT22;2524;54.364;10.072;2022-10-22T14:57:27;16.80;99.90
5011;DHT22;2524;54.364;10.072;2022-10-22T14:59:52;16.90;99.90
5011;DHT22;2524;54.364;10.072;2022-10-22T15:02:19;16.90;99.90
5011;DHT22;2524;54.364;10.072;2022-10-22T15:04:46;16.80;99.90
5011;DHT22;2524;54.364;10.072;2022-10-22T15:07:13;16.80;99.90
5011;DHT22;2524;54.364;10.072;2022-10-22T15:09:38;16.80;99.90
5011;DHT22;2524;54.364;10.072;2022-10-22T15:12:04;16.80;99.90
5011;DHT22;2524;54.364;10.072;2022-10-22T15:14:30;16.80;99.90
5011;DHT22;2524;54.364;10.072;2022-10-22T15:16:56;16.80;99.90
5011;DHT22;2524;54.364;10.072;2022-10-22T15:19:22;16.90;99.90
5011;DHT22;2524;54.364;10.072;2022-10-22T15:21:47;16.80;99.90
5011;DHT22;2524;54.364;10.072;2022-10-22T15:24:13;16.80;99.90
5011;DHT22;2524;54.364;10.072;2022-10-22T15:26:38;16.70;99.90
5011;DHT22;2524;54.364;10.072;2022-10-22T15:29:04;16.70;99.90
5011;DHT22;2524;54.364;10.072;2022-10-22T15:31:51;16.70;99.90
5011;DHT22;2524;54.364;10.072;2022-10-22T15:34:28;16.80;99.90
5011;DHT22;2524;54.364;10.072;2022-10-22T15:36:55;16.70;99.90
5011;DHT22;2524;54.364;10.072;2022-10-22T15:39:21;16.80;99.90
5011;DHT22;2524;54.364;10.072;2022-10-22T15:41:48;16.70;99.90
5011;DHT22;2524;54.364;10.072;2022-10-22T15:44:26;16.60;99.90
5011;DHT22;2524;54.364;10.072;2022-10-22T15:46:53;16.60;99.90
5011;DHT22;2524;54.364;10.072;2022-10-22T15:49:22;16.60;99.90
5011;DHT22;2524;54.364;10.072;2022-10-22T15:51:48;16.60;99.90
5011;DHT22;2524;54.364;10.072;2022-10-22T15:54:17;16.70;99.90
5011;DHT22;2524;54.364;10.072;2022-10-22T15:56:43;16.50;99.90
5011;DHT22;2524;54.364;10.072;2022-10-22T15:59:10;16.60;99.90
5011;DHT22;2524;54.364;10.072;2022-10-22T16:01:37;16.60;99.90
5011;DHT22;2524;54.364;10.072;2022-10-22T16:04:04;16.50;99.90
5011;DHT22;2524;54.364;10.072;2022-10-22T16:06:42;16.50;99.90
5011;DHT22;2524;54.364;10.072;2022-10-22T16:09:11;16.50;99.90
5011;DHT22;2524;54.364;10.072;2022-10-22T16:11:37;16.50;99.90
5011;DHT22;2524;54.364;10.072;2022-10-22T16:14:03;16.40;99.90
5011;DHT22;2524;54.364;10.072;2022-10-22T16:16:31;16.50;99.90
5011;DHT22;2524;54.364;10.072;2022-10-22T16:18:57;16.60;99.90
5011;DHT22;2524;54.364;10.072;2022-10-22T16:21:23;16.40;99.90
5011;DHT22;2524;54.364;10.072;2022-10-22T16:23:49;16.40;99.90
5011;DHT22;2524;54.364;10.072;2022-10-22T16:26:16;16.40;99.90
5011;DHT22;2524;54.364;10.072;2022-10-22T16:28:43;16.40;99.90
5011;DHT22;2524;54.364;10.072;2022-10-22T16:31:11;16.40;99.90
5011;DHT22;2524;54.364;10.072;2022-10-22T16:33:38;16.40;99.90
5011;DHT22;2524;54.364;10.072;2022-10-22T16:36:05;16.50;99.90
5011;DHT22;2524;54.364;10.072;2022-10-22T16:38:31;16.40;99.90
5011;DHT22;2524;54.364;10.072;2022-10-22T16:41:13;16.40;99.90
5011;DHT22;2524;54.364;10.072;2022-10-22T16:43:44;16.40;99.90
5011;DHT22;2524;54.364;10.072;2022-10-22T16:46:11;16.30;99.90
5011;DHT22;2524;54.364;10.072;2022-10-22T16:48:37;16.30;99.90
5011;DHT22;2524;54.364;10.072;2022-10-22T16:51:11;16.30;99.90
5011;DHT22;2524;54.364;10.072;2022-10-22T16:53:37;16.30;99.90
5011;DHT22;2524;54.364;10.072;2022-10-22T16:56:03;16.30;99.90
5011;DHT22;2524;54.364;10.072;2022-10-22T16:58:29;16.30;99.90
5011;DHT22;2524;54.364;10.072;2022-10-22T17:00:54;16.30;99.90
5011;DHT22;2524;54.364;10.072;2022-10-22T17:03:20;16.30;99.90
5011;DHT22;2524;54.364;10.072;2022-10-22T17:05:45;16.20;99.90
5011;DHT22;2524;54.364;10.072;2022-10-22T17:08:11;16.20;99.90
5011;DHT22;2524;54.364;10.072;2022-10-22T17:10:37;16.20;99.90
5011;DHT22;2524;54.364;10.072;2022-10-22T17:13:04;16.20;99.90
5011;DHT22;2524;54.364;10.072;2022-10-22T17:15:30;16.20;99.90
5011;DHT22;2524;54.364;10.072;2022-10-22T17:17:58;16.20;99.90
5011;DHT22;2524;54.364;10.072;2022-10-22T17:20:24;16.10;99.90
5011;DHT22;2524;54.364;10.072;2022-10-22T17:22:50;16.10;99.90
5011;DHT22;2524;54.364;10.072;2022-10-22T17:25:18;16.20;99.90
5011;DHT22;2524;54.364;10.072;2022-10-22T17:27:47;16.10;99.90
5011;DHT22;2524;54.364;10.072;2022-10-22T17:30:18;16.10;99.90
5011;DHT22;2524;54.364;10.072;2022-10-22T17:32:44;16.00;99.90
5011;DHT22;2524;54.364;10.072;2022-10-22T17:35:10;16.00;99.90